sensor_id;sensor_type;location;lat;lon;timestamp;temperature;humidity
23685;DHT22;12020;51.384;6.908;2024-01-30T00:00:58;10.00;99.90
23685;DHT22;12020;51.384;6.908;2024-01-30T00:03:25;10.00;99.90
23685;DHT22;12020;51.384;6.908;2024-01-30T00:05:55;10.00;99.90
23685;DHT22;12020;51.384;6.908;2024-01-30T00:08:21;10.00;99.90
23685;DHT22;12020;51.384;6.908;2024-01-30T00:10:46;10.00;99.90
23685;DHT22;12020;51.384;6.908;2024-01-30T00:13:12;10.00;99.90
23685;DHT22;12020;51.384;6.908;2024-01-30T00:15:39;10.00;99.90
23685;DHT22;12020;51.384;6.908;2024-01-30T00:18:05;10.00;99.90
23685;DHT22;12020;51.384;6.908;2024-01-30T00:20:35;10.00;99.90
23685;DHT22;12020;51.384;6.908;2024-01-30T00:23:02;10.00;99.90
23685;DHT22;12020;51.384;6.908;2024-01-30T00:25:29;10.00;99.90
23685;DHT22;12020;51.384;6.908;2024-01-30T00:27:56;10.00;99.90
23685;DHT22;12020;51.384;6.908;2024-01-30T00:30:23;10.00;99.90
23685;DHT22;12020;51.384;6.908;2024-01-30T00:32:53;10.00;99.90
23685;DHT22;12020;51.384;6.908;2024-01-30T00:35:19;10.00;99.90
23685;DHT22;12020;51.384;6.908;2024-01-30T00:37:48;10.00;99.90
23685;DHT22;12020;51.384;6.908;2024-01-30T00:40:24;9.90;99.90
23685;DHT22;12020;51.384;6.908;2024-01-30T00:42:52;9.90;99.90
23685;DHT22;12020;51.384;6.908;2024-01-30T00:45:18;9.90;99.90
23685;DHT22;12020;51.384;6.908;2024-01-30T00:47:54;9.90;99.90
23685;DHT22;12020;51.384;6.908;2024-01-30T00:50:20;9.90;99.90
23685;DHT22;12020;51.384;6.908;2024-01-30T00:52:47;9.90;99.90
23685;DHT22;12020;51.384;6.908;2024-01-30T00:55:14;9.90;99.90
23685;DHT22;12020;51.384;6.908;2024-01-30T00:57:40;9.90;99.90
23685;DHT22;12020;51.384;6.908;2024-01-30T01:00:09;9.90;99.90
23685;DHT22;12020;51.384;6.908;2024-01-30T01:02:43;9.90;99.90
23685;DHT22;12020;51.384;6.908;2024-01-30T01:05:15;9.90;99.90
23685;DHT22;12020;51.384;6.908;2024-01-30T01:07:41;9.80;99.90
23685;DHT22;12020;51.384;6.908;2024-01-30T01:10:10;9.90;99.90
23685;DHT22;12020;51.384;6.908;2024-01-30T01:12:39;9.90;99.90
23685;DHT22;12020;51.384;6.908;2024-01-30T01:15:10;9.80;99.90
23685;DHT22;12020;51.384;6.908;2024-01-30T01:17:39;9.80;99.90
23685;DHT22;12020;51.384;6.908;2024-01-30T01:20:15;9.80;99.90
23685;DHT22;12020;51.384;6.908;2024-01-30T01:22:41;9.80;99.90
23685;DHT22;12020;51.384;6.908;2024-01-30T01:25:11;9.70;99.90
23685;DHT22;12020;51.384;6.908;2024-01-30T01:27:37;9.70;99.90
23685;DHT22;12020;51.384;6.908;2024-01-30T01:30:09;9.70;99.90
23685;DHT22;12020;51.384;6.908;2024-01-30T01:32:36;9.70;99.90
23685;DHT22;12020;51.384;6.908;2024-01-30T01:35:04;9.70;99.90
23685;DHT22;12020;51.384;6.908;2024-01-30T01:37:33;9.70;99.90
23685;DHT22;12020;51.384;6.908;2024-01-30T01:40:12;9.70;99.90
23685;DHT22;12020;51.384;6.908;2024-01-30T01:42:41;9.70;99.90
23685;DHT22;12020;51.384;6.908;2024-01-30T01:45:08;9.60;99.90
23685;DHT22;12020;51.384;6.908;2024-01-30T01:47:36;9.60;99.90
23685;DHT22;12020;51.384;6.908;2024-01-30T01:50:04;9.60;99.90
23685;DHT22;12020;51.384;6.908;2024-01-30T01:52:31;9.60;99.90
23685;DHT22;12020;51.384;6.908;2024-01-30T01:54:58;9.60;99.90
23685;DHT22;12020;51.384;6.908;2024-01-30T01:57:23;9.60;99.90
23685;DHT22;12020;51.384;6.908;2024-01-30T01:59:51;9.50;99.90
23685;DHT22;12020;51.384;6.908;2024-01-30T02:02:19;9.50;99.90
23685;DHT22;12020;51.384;6.908;2024-01-30T02:04:49;9.50;99.90
23685;DHT22;12020;51.384;6.908;2024-01-30T02:07:15;9.50;99.90
23685;DHT22;12020;51.384;6.908;2024-01-30T02:09:44;9.50;99.90
23685;DHT22;12020;51.384;6.908;2024-01-30T02:12:12;9.50;99.90
23685;DHT22;12020;51.384;6.908;2024-01-30T02:14:47;9.50;99.90
23685;DHT22;12020;51.384;6.908;2024-01-30T02:17:21;9.50;99.90
23685;DHT22;12020;51.384;6.908;2024-01-30T02:19:52;9.50;99.90
23685;DHT22;12020;51.384;6.908;2024-01-30T02:22:22;9.50;99.90
23685;DHT22;12020;51.384;6.908;2024-01-30T02:24:55;9.50;99.90
23685;DHT22;12020;51.384;6.908;2024-01-30T02:27:25;9.50;99.90
23685;DHT22;12020;51.384;6.908;2024-01-30T02:29:57;9.40;99.90
23685;DHT22;12020;51.384;6.908;2024-01-30T02:32:26;9.40;99.90
23685;DHT22;12020;51.384;6.908;2024-01-30T02:34:53;9.40;99.90
23685;DHT22;12020;51.384;6.908;2024-01-30T02:37:20;9.40;99.90
23685;DHT22;12020;51.384;6.908;2024-01-30T02:39:47;9.40;99.90
23685;DHT22;12020;51.384;6.908;2024-01-30T02:42:14;9.40;99.90
23685;DHT22;12020;51.384;6.908;2024-01-30T02:44:45;9.40;99.90
23685;DHT22;12020;51.384;6.908;2024-01-30T02:47:14;9.40;99.90
23685;DHT22;12020;51.384;6.908;2024-01-30T02:49:44;9.40;99.90
23685;DHT22;12020;51.384;6.908;2024-01-30T02:52:10;9.50;99.90
23685;DHT22;12020;51.384;6.908;2024-01-30T02:54:35;9.50;99.90
23685;DHT22;12020;51.384;6.908;2024-01-30T02:57:10;9.50;99.90
23685;DHT22;12020;51.384;6.908;2024-01-30T02:59:41;9.40;99.90
23685;DHT22;12020;51.384;6.908;2024-01-30T03:02:07;9.50;99.90
23685;DHT22;12020;51.384;6.908;2024-01-30T03:04:41;9.50;99.90
23685;DHT22;12020;51.384;6.908;2024-01-30T03:07:16;9.40;99.90
23685;DHT22;12020;51.384;6.908;2024-01-30T03:09:55;9.40;99.90
23685;DHT22;12020;51.384;6.908;2024-01-30T03:12:22;9.40;99.90
23685;DHT22;12020;51.384;6.908;2024-01-30T03:14:48;9.50;99.90
23685;DHT22;12020;51.384;6.908;2024-01-30T03:17:30;9.50;99.90
23685;DHT22;12020;51.384;6.908;2024-01-30T03:19:56;9.50;99.90
23685;DHT22;12020;51.384;6.908;2024-01-30T03:22:25;9.50;99.90
23685;DHT22;12020;51.384;6.908;2024-01-30T03:24:51;9.50;99.90
23685;DHT22;12020;51.384;6.908;2024-01-30T03:27:17;9.50;99.90
23685;DHT22;12020;51.384;6.908;2024-01-30T03:29:45;9.50;99.90
23685;DHT22;12020;51.384;6.908;2024-01-30T03:32:11;9.50;99.90
23685;DHT22;12020;51.384;6.908;2024-01-30T03:34:46;9.50;99.90
23685;DHT22;12020;51.384;6.908;2024-01-30T03:37:16;9.50;99.90
23685;DHT22;12020;51.384;6.908;2024-01-30T03:39:49;9.50;99.90
23685;DHT22;12020;51.384;6.908;2024-01-30T03:42:24;9.50;99.90
23685;DHT22;12020;51.384;6.908;2024-01-30T03:45:04;9.50;99.90
23685;DHT22;12020;51.384;6.908;2024-01-30T03:47:34;9.50;99.90
23685;DHT22;12020;51.384;6.908;2024-01-30T03:50:06;9.50;99.90
23685;DHT22;12020;51.384;6.908;2024-01-30T03:52:32;9.50;99.90
23685;DHT22;12020;51.384;6.908;2024-01-30T03:55:01;9.40;99.90
23685;DHT22;12020;51.384;6.908;2024-01-30T03:57:29;9.50;99.90
23685;DHT22;12020;51.384;6.908;2024-01-30T03:59:58;9.50;99.90
23685;DHT22;12020;51.384;6.908;2024-01-30T04:02:27;9.50;99.90
23685;DHT22;12020;51.384;6.908;2024-01-30T04:04:56;9.50;99.90
23685;DHT22;12020;51.384;6.908;2024-01-30T04:07:33;9.50;99.90
23685;DHT22;12020;51.384;6.908;2024-01-30T04:10:03;9.50;99.90
23685;DHT22;12020;51.384;6.908;2024-01-30T04:12:36;9.50;99.90
23685;DHT22;12020;51.384;6.908;2024-01-30T04:15:06;9.50;99.90
23685;DHT22;12020;51.384;6.908;2024-01-30T04:17:36;9.50;99.90
23685;DHT22;12020;51.384;6.908;2024-01-30T04:20:06;9.50;99.90
23685;DHT22;12020;51.384;6.908;2024-01-30T04:22:38;9.50;99.90
23685;DHT22;12020;51.384;6.908;2024-01-30T04:25:05;9.50;99.90
23685;DHT22;12020;51.384;6.908;2024-01-30T04:27:31;9.50;99.90
23685;DHT22;12020;51.384;6.908;2024-01-30T04:30:00;9.50;99.90
23685;DHT22;12020;51.384;6.908;2024-01-30T04:32:31;9.40;99.90
23685;DHT22;12020;51.384;6.908;2024-01-30T04:35:03;9.50;99.90
23685;DHT22;12020;51.384;6.908;2024-01-30T04:37:31;9.50;99.90
23685;DHT22;12020;51.384;6.908;2024-01-30T04:40:02;9.50;99.90
23685;DHT22;12020;51.384;6.908;2024-01-30T04:42:34;9.50;99.90
23685;DHT22;12020;51.384;6.908;2024-01-30T04:45:00;9.50;99.90
23685;DHT22;12020;51.384;6.908;2024-01-30T04:47:27;9.50;99.90
23685;DHT22;12020;51.384;6.908;2024-01-30T04:49:55;9.50;99.90
23685;DHT22;12020;51.384;6.908;2024-01-30T04:52:21;9.50;99.90
23685;DHT22;12020;51.384;6.908;2024-01-30T04:54:49;9.50;99.90
23685;DHT22;12020;51.384;6.908;2024-01-30T04:57:16;9.50;99.90
23685;DHT22;12020;51.384;6.908;2024-01-30T04:59:47;9.50;99.90
23685;DHT22;12020;51.384;6.908;2024-01-30T05:02:15;9.50;99.90
23685;DHT22;12020;51.384;6.908;2024-01-30T05:04:54;9.50;99.90
23685;DHT22;12020;51.384;6.908;2024-01-30T05:07:22;9.50;99.90
23685;DHT22;12020;51.384;6.908;2024-01-30T05:09:51;9.50;99.90
23685;DHT22;12020;51.384;6.908;2024-01-30T05:12:25;9.50;99.90
23685;DHT22;12020;51.384;6.908;2024-01-30T05:14:52;9.50;99.90
23685;DHT22;12020;51.384;6.908;2024-01-30T05:17:26;9.50;99.90
23685;DHT22;12020;51.384;6.908;2024-01-30T05:19:52;9.50;99.90
23685;DHT22;12020;51.384;6.908;2024-01-30T05:22:25;9.50;99.90
23685;DHT22;12020;51.384;6.908;2024-01-30T05:24:51;9.50;99.90
23685;DHT22;12020;51.384;6.908;2024-01-30T05:27:19;9.50;99.90
23685;DHT22;12020;51.384;6.908;2024-01-30T05:29:49;9.50;99.90
23685;DHT22;12020;51.384;6.908;2024-01-30T05:32:18;9.50;99.90
23685;DHT22;12020;51.384;6.908;2024-01-30T05:34:46;9.50;99.90
23685;DHT22;12020;51.384;6.908;2024-01-30T05:37:13;9.50;99.90
23685;DHT22;12020;51.384;6.908;2024-01-30T05:39:44;9.50;99.90
23685;DHT22;12020;51.384;6.908;2024-01-30T05:42:15;9.50;99.90
23685;DHT22;12020;51.384;6.908;2024-01-30T05:44:43;9.40;99.90
23685;DHT22;12020;51.384;6.908;2024-01-30T05:47:15;9.50;99.90
23685;DHT22;12020;51.384;6.908;2024-01-30T05:49:41;9.50;99.90
23685;DHT22;12020;51.384;6.908;2024-01-30T05:52:07;9.40;99.90
23685;DHT22;12020;51.384;6.908;2024-01-30T05:54:33;9.40;99.90
23685;DHT22;12020;51.384;6.908;2024-01-30T05:57:01;9.40;99.90
23685;DHT22;12020;51.384;6.908;2024-01-30T05:59:33;9.40;99.90
23685;DHT22;12020;51.384;6.908;2024-01-30T06:02:07;9.40;99.90
23685;DHT22;12020;51.384;6.908;2024-01-30T06:04:38;9.50;99.90
23685;DHT22;12020;51.384;6.908;2024-01-30T06:07:06;9.40;99.90
23685;DHT22;12020;51.384;6.908;2024-01-30T06:09:40;9.40;99.90
23685;DHT22;12020;51.384;6.908;2024-01-30T06:12:09;9.40;99.90
23685;DHT22;12020;51.384;6.908;2024-01-30T06:14:43;9.40;99.90
23685;DHT22;12020;51.384;6.908;2024-01-30T06:17:10;9.40;99.90
23685;DHT22;12020;51.384;6.908;2024-01-30T06:19:38;9.40;99.90
23685;DHT22;12020;51.384;6.908;2024-01-30T06:22:07;9.40;99.90
23685;DHT22;12020;51.384;6.908;2024-01-30T06:24:36;9.40;99.90
23685;DHT22;12020;51.384;6.908;2024-01-30T06:27:03;9.40;99.90
23685;DHT22;12020;51.384;6.908;2024-01-30T06:29:29;9.40;99.90
23685;DHT22;12020;51.384;6.908;2024-01-30T06:31:55;9.40;99.90
23685;DHT22;12020;51.384;6.908;2024-01-30T06:34:24;9.50;99.90
23685;DHT22;12020;51.384;6.908;2024-01-30T06:36:55;9.50;99.90
23685;DHT22;12020;51.384;6.908;2024-01-30T06:39:21;9.60;99.90
23685;DHT22;12020;51.384;6.908;2024-01-30T06:41:48;9.60;99.90
23685;DHT22;12020;51.384;6.908;2024-01-30T06:44:15;9.60;99.90
23685;DHT22;12020;51.384;6.908;2024-01-30T06:46:45;9.60;99.90
23685;DHT22;12020;51.384;6.908;2024-01-30T06:49:25;9.60;99.90
23685;DHT22;12020;51.384;6.908;2024-01-30T06:51:52;9.60;99.90
23685;DHT22;12020;51.384;6.908;2024-01-30T06:54:21;9.60;99.90
23685;DHT22;12020;51.384;6.908;2024-01-30T06:56:48;9.70;99.90
23685;DHT22;12020;51.384;6.908;2024-01-30T06:59:14;9.70;99.90
23685;DHT22;12020;51.384;6.908;2024-01-30T07:01:45;9.70;99.90
23685;DHT22;12020;51.384;6.908;2024-01-30T07:04:11;9.70;99.90
23685;DHT22;12020;51.384;6.908;2024-01-30T07:06:39;9.70;99.90
23685;DHT22;12020;51.384;6.908;2024-01-30T07:09:05;9.70;99.90
23685;DHT22;12020;51.384;6.908;2024-01-30T07:11:31;9.80;99.90
23685;DHT22;12020;51.384;6.908;2024-01-30T07:13:57;9.80;99.90
23685;DHT22;12020;51.384;6.908;2024-01-30T07:16:23;9.80;99.90
23685;DHT22;12020;51.384;6.908;2024-01-30T07:18:48;9.70;99.90
23685;DHT22;12020;51.384;6.908;2024-01-30T07:21:14;9.80;99.90
23685;DHT22;12020;51.384;6.908;2024-01-30T07:23:40;9.80;99.90
23685;DHT22;12020;51.384;6.908;2024-01-30T07:26:07;9.80;99.90
23685;DHT22;12020;51.384;6.908;2024-01-30T07:28:34;9.70;99.90
23685;DHT22;12020;51.384;6.908;2024-01-30T07:31:00;9.70;99.90
23685;DHT22;12020;51.384;6.908;2024-01-30T07:33:25;9.70;99.90
23685;DHT22;12020;51.384;6.908;2024-01-30T07:35:52;9.70;99.90
23685;DHT22;12020;51.384;6.908;2024-01-30T07:38:18;9.80;99.90
23685;DHT22;12020;51.384;6.908;2024-01-30T07:40:44;9.70;99.90
23685;DHT22;12020;51.384;6.908;2024-01-30T07:43:10;9.80;99.90
23685;DHT22;12020;51.384;6.908;2024-01-30T07:45:35;9.80;99.90
23685;DHT22;12020;51.384;6.908;2024-01-30T07:48:02;9.80;99.90
23685;DHT22;12020;51.384;6.908;2024-01-30T07:50:28;9.80;99.90
23685;DHT22;12020;51.384;6.908;2024-01-30T07:52:56;9.80;99.90
23685;DHT22;12020;51.384;6.908;2024-01-30T07:55:22;9.90;99.90
23685;DHT22;12020;51.384;6.908;2024-01-30T07:57:52;9.90;99.90
23685;DHT22;12020;51.384;6.908;2024-01-30T08:00:21;9.90;99.90
23685;DHT22;12020;51.384;6.908;2024-01-30T08:02:47;9.90;99.90
23685;DHT22;12020;51.384;6.908;2024-01-30T08:05:22;9.90;99.90
23685;DHT22;12020;51.384;6.908;2024-01-30T08:07:49;10.00;99.90
23685;DHT22;12020;51.384;6.908;2024-01-30T08:10:15;9.90;99.90
23685;DHT22;12020;51.384;6.908;2024-01-30T08:12:41;10.00;99.90
23685;DHT22;12020;51.384;6.908;2024-01-30T08:15:07;10.00;99.90
23685;DHT22;12020;51.384;6.908;2024-01-30T08:17:33;10.00;99.90
23685;DHT22;12020;51.384;6.908;2024-01-30T08:19:59;10.00;99.90
23685;DHT22;12020;51.384;6.908;2024-01-30T08:22:25;10.00;99.90
23685;DHT22;12020;51.384;6.908;2024-01-30T08:24:50;10.00;99.90
23685;DHT22;12020;51.384;6.908;2024-01-30T08:27:17;10.00;99.90
23685;DHT22;12020;51.384;6.908;2024-01-30T08:29:43;10.00;99.90
23685;DHT22;12020;51.384;6.908;2024-01-30T08:32:08;10.00;99.90
23685;DHT22;12020;51.384;6.908;2024-01-30T08:34:34;10.00;99.90
23685;DHT22;12020;51.384;6.908;2024-01-30T08:37:00;10.10;99.90
23685;DHT22;12020;51.384;6.908;2024-01-30T08:39:25;10.10;99.90
23685;DHT22;12020;51.384;6.908;2024-01-30T08:41:51;10.10;99.90
23685;DHT22;12020;51.384;6.908;2024-01-30T08:44:17;10.10;99.90
23685;DHT22;12020;51.384;6.908;2024-01-30T08:46:44;10.10;99.90
23685;DHT22;12020;51.384;6.908;2024-01-30T08:49:10;10.10;99.90
23685;DHT22;12020;51.384;6.908;2024-01-30T08:51:41;10.20;99.90
23685;DHT22;12020;51.384;6.908;2024-01-30T08:54:06;10.10;99.90
23685;DHT22;12020;51.384;6.908;2024-01-30T08:56:33;10.20;99.90
23685;DHT22;12020;51.384;6.908;2024-01-30T08:58:59;10.20;99.90
23685;DHT22;12020;51.384;6.908;2024-01-30T09:01:25;10.20;99.90
23685;DHT22;12020;51.384;6.908;2024-01-30T09:03:51;10.30;99.90
23685;DHT22;12020;51.384;6.908;2024-01-30T09:06:16;10.30;99.90
23685;DHT22;12020;51.384;6.908;2024-01-30T09:08:42;10.30;99.90
23685;DHT22;12020;51.384;6.908;2024-01-30T09:11:15;10.30;99.90
23685;DHT22;12020;51.384;6.908;2024-01-30T09:13:41;10.30;99.90
23685;DHT22;12020;51.384;6.908;2024-01-30T09:16:07;10.30;99.90
23685;DHT22;12020;51.384;6.908;2024-01-30T09:18:33;10.30;99.90
23685;DHT22;12020;51.384;6.908;2024-01-30T09:20:59;10.30;99.90
23685;DHT22;12020;51.384;6.908;2024-01-30T09:23:26;10.30;99.90
23685;DHT22;12020;51.384;6.908;2024-01-30T09:25:52;10.30;99.90
23685;DHT22;12020;51.384;6.908;2024-01-30T09:28:18;10.40;99.90
23685;DHT22;12020;51.384;6.908;2024-01-30T09:30:44;10.40;99.90
23685;DHT22;12020;51.384;6.908;2024-01-30T09:33:09;10.40;99.90
23685;DHT22;12020;51.384;6.908;2024-01-30T09:35:36;10.40;99.90
23685;DHT22;12020;51.384;6.908;2024-01-30T09:38:02;10.50;99.90
23685;DHT22;12020;51.384;6.908;2024-01-30T09:40:28;10.50;99.90
23685;DHT22;12020;51.384;6.908;2024-01-30T09:42:54;10.50;99.90
23685;DHT22;12020;51.384;6.908;2024-01-30T09:45:23;10.50;99.90
23685;DHT22;12020;51.384;6.908;2024-01-30T09:47:50;10.60;99.90
23685;DHT22;12020;51.384;6.908;2024-01-30T09:50:16;10.70;99.90
23685;DHT22;12020;51.384;6.908;2024-01-30T09:52:46;10.70;99.90
23685;DHT22;12020;51.384;6.908;2024-01-30T09:55:12;10.80;99.90
23685;DHT22;12020;51.384;6.908;2024-01-30T09:57:38;10.80;99.90
23685;DHT22;12020;51.384;6.908;2024-01-30T10:00:04;10.90;99.90
23685;DHT22;12020;51.384;6.908;2024-01-30T10:02:32;10.90;99.90
23685;DHT22;12020;51.384;6.908;2024-01-30T10:04:57;11.00;99.90
23685;DHT22;12020;51.384;6.908;2024-01-30T10:07:23;11.00;99.90
23685;DHT22;12020;51.384;6.908;2024-01-30T10:09:48;11.10;99.90
23685;DHT22;12020;51.384;6.908;2024-01-30T10:12:15;11.10;99.90
23685;DHT22;12020;51.384;6.908;2024-01-30T10:14:41;11.20;99.90
23685;DHT22;12020;51.384;6.908;2024-01-30T10:17:07;11.20;99.90
23685;DHT22;12020;51.384;6.908;2024-01-30T10:19:33;11.30;99.90
23685;DHT22;12020;51.384;6.908;2024-01-30T10:21:59;11.30;99.90
23685;DHT22;12020;51.384;6.908;2024-01-30T10:24:26;11.30;99.90
23685;DHT22;12020;51.384;6.908;2024-01-30T10:26:52;11.30;99.90
23685;DHT22;12020;51.384;6.908;2024-01-30T10:29:18;11.30;99.90
23685;DHT22;12020;51.384;6.908;2024-01-30T10:31:43;11.30;99.90
23685;DHT22;12020;51.384;6.908;2024-01-30T10:34:09;11.30;99.90
23685;DHT22;12020;51.384;6.908;2024-01-30T10:36:40;11.30;99.90
23685;DHT22;12020;51.384;6.908;2024-01-30T10:39:09;11.30;99.90
23685;DHT22;12020;51.384;6.908;2024-01-30T10:41:44;11.40;99.90
23685;DHT22;12020;51.384;6.908;2024-01-30T10:44:10;11.40;99.90
23685;DHT22;12020;51.384;6.908;2024-01-30T10:46:38;11.50;99.90
23685;DHT22;12020;51.384;6.908;2024-01-30T10:49:05;11.50;99.90
23685;DHT22;12020;51.384;6.908;2024-01-30T10:51:32;11.60;99.90
23685;DHT22;12020;51.384;6.908;2024-01-30T10:53:58;11.60;99.90
23685;DHT22;12020;51.384;6.908;2024-01-30T10:56:24;11.60;99.90
23685;DHT22;12020;51.384;6.908;2024-01-30T10:58:51;11.70;99.90
23685;DHT22;12020;51.384;6.908;2024-01-30T11:01:22;11.70;99.90
23685;DHT22;12020;51.384;6.908;2024-01-30T11:03:52;11.80;99.90
23685;DHT22;12020;51.384;6.908;2024-01-30T11:06:18;11.80;99.90
23685;DHT22;12020;51.384;6.908;2024-01-30T11:08:45;11.90;99.90
23685;DHT22;12020;51.384;6.908;2024-01-30T11:11:11;11.90;99.90
23685;DHT22;12020;51.384;6.908;2024-01-30T11:13:37;12.00;99.90
23685;DHT22;12020;51.384;6.908;2024-01-30T11:16:06;12.00;99.90
23685;DHT22;12020;51.384;6.908;2024-01-30T11:18:33;12.10;99.90
23685;DHT22;12020;51.384;6.908;2024-01-30T11:21:01;12.10;99.90
23685;DHT22;12020;51.384;6.908;2024-01-30T11:23:30;12.10;99.90
23685;DHT22;12020;51.384;6.908;2024-01-30T11:25:58;12.20;99.90
23685;DHT22;12020;51.384;6.908;2024-01-30T11:28:24;12.20;99.90
23685;DHT22;12020;51.384;6.908;2024-01-30T11:30:50;12.20;99.90
23685;DHT22;12020;51.384;6.908;2024-01-30T11:33:29;12.20;99.90
23685;DHT22;12020;51.384;6.908;2024-01-30T11:35:58;12.20;99.90
23685;DHT22;12020;51.384;6.908;2024-01-30T11:38:30;12.30;99.90
23685;DHT22;12020;51.384;6.908;2024-01-30T11:40:55;12.20;99.90
23685;DHT22;12020;51.384;6.908;2024-01-30T11:43:22;12.20;99.90
23685;DHT22;12020;51.384;6.908;2024-01-30T11:45:49;12.20;99.90
23685;DHT22;12020;51.384;6.908;2024-01-30T11:48:14;12.30;99.90
23685;DHT22;12020;51.384;6.908;2024-01-30T11:50:41;12.30;99.90
23685;DHT22;12020;51.384;6.908;2024-01-30T11:53:07;12.30;99.90
23685;DHT22;12020;51.384;6.908;2024-01-30T11:55:33;12.30;99.90
23685;DHT22;12020;51.384;6.908;2024-01-30T11:58:01;12.30;99.90
23685;DHT22;12020;51.384;6.908;2024-01-30T12:00:27;12.30;99.90
23685;DHT22;12020;51.384;6.908;2024-01-30T12:02:55;12.20;99.90
23685;DHT22;12020;51.384;6.908;2024-01-30T12:05:26;12.20;99.90
23685;DHT22;12020;51.384;6.908;2024-01-30T12:07:52;12.20;99.90
23685;DHT22;12020;51.384;6.908;2024-01-30T12:10:18;12.20;99.90
23685;DHT22;12020;51.384;6.908;2024-01-30T12:12:46;12.20;99.90
23685;DHT22;12020;51.384;6.908;2024-01-30T12:15:13;12.20;99.90
23685;DHT22;12020;51.384;6.908;2024-01-30T12:17:39;12.20;99.90
23685;DHT22;12020;51.384;6.908;2024-01-30T12:20:10;12.20;99.90
23685;DHT22;12020;51.384;6.908;2024-01-30T12:22:47;12.20;99.90
23685;DHT22;12020;51.384;6.908;2024-01-30T12:25:14;12.20;99.90
23685;DHT22;12020;51.384;6.908;2024-01-30T12:27:48;12.20;99.90
23685;DHT22;12020;51.384;6.908;2024-01-30T12:30:18;12.20;99.90
23685;DHT22;12020;51.384;6.908;2024-01-30T12:32:45;12.20;99.90
23685;DHT22;12020;51.384;6.908;2024-01-30T12:35:16;12.20;99.90
23685;DHT22;12020;51.384;6.908;2024-01-30T12:38:02;12.30;99.90
23685;DHT22;12020;51.384;6.908;2024-01-30T12:40:29;12.20;99.90
23685;DHT22;12020;51.384;6.908;2024-01-30T12:42:59;12.20;99.90
23685;DHT22;12020;51.384;6.908;2024-01-30T12:45:25;12.20;99.90
23685;DHT22;12020;51.384;6.908;2024-01-30T12:47:50;12.20;99.90
23685;DHT22;12020;51.384;6.908;2024-01-30T12:50:16;12.20;99.90
23685;DHT22;12020;51.384;6.908;2024-01-30T12:52:43;12.20;99.90
23685;DHT22;12020;51.384;6.908;2024-01-30T12:55:09;12.20;99.90
23685;DHT22;12020;51.384;6.908;2024-01-30T12:57:35;12.20;99.90
23685;DHT22;12020;51.384;6.908;2024-01-30T13:00:01;12.20;99.90
23685;DHT22;12020;51.384;6.908;2024-01-30T13:02:27;12.20;99.90
23685;DHT22;12020;51.384;6.908;2024-01-30T13:05:00;12.20;99.90
23685;DHT22;12020;51.384;6.908;2024-01-30T13:07:25;12.10;99.90
23685;DHT22;12020;51.384;6.908;2024-01-30T13:09:51;12.10;99.90
23685;DHT22;12020;51.384;6.908;2024-01-30T13:12:17;12.10;99.90
23685;DHT22;12020;51.384;6.908;2024-01-30T13:14:42;12.10;99.90
23685;DHT22;12020;51.384;6.908;2024-01-30T13:17:08;12.10;99.90
23685;DHT22;12020;51.384;6.908;2024-01-30T13:19:34;12.10;99.90
23685;DHT22;12020;51.384;6.908;2024-01-30T13:22:01;12.10;99.90
23685;DHT22;12020;51.384;6.908;2024-01-30T13:24:27;12.10;99.90
23685;DHT22;12020;51.384;6.908;2024-01-30T13:26:53;12.10;99.90
23685;DHT22;12020;51.384;6.908;2024-01-30T13:29:18;12.10;99.90
23685;DHT22;12020;51.384;6.908;2024-01-30T13:31:44;12.10;99.90
23685;DHT22;12020;51.384;6.908;2024-01-30T13:34:11;12.10;99.90
23685;DHT22;12020;51.384;6.908;2024-01-30T13:36:38;12.10;99.90
23685;DHT22;12020;51.384;6.908;2024-01-30T13:39:03;12.10;99.90
23685;DHT22;12020;51.384;6.908;2024-01-30T13:41:33;12.20;99.90
23685;DHT22;12020;51.384;6.908;2024-01-30T13:43:58;12.20;99.90
23685;DHT22;12020;51.384;6.908;2024-01-30T13:46:24;12.20;99.90
23685;DHT22;12020;51.384;6.908;2024-01-30T13:48:51;12.20;99.90
23685;DHT22;12020;51.384;6.908;2024-01-30T13:51:17;12.20;99.90
23685;DHT22;12020;51.384;6.908;2024-01-30T13:53:42;12.20;99.90
23685;DHT22;12020;51.384;6.908;2024-01-30T13:56:08;12.20;99.90
23685;DHT22;12020;51.384;6.908;2024-01-30T13:58:34;12.20;99.90
23685;DHT22;12020;51.384;6.908;2024-01-30T14:01:02;12.20;99.90
23685;DHT22;12020;51.384;6.908;2024-01-30T14:03:27;12.20;99.90
23685;DHT22;12020;51.384;6.908;2024-01-30T14:05:54;12.20;99.90
23685;DHT22;12020;51.384;6.908;2024-01-30T14:08:20;12.20;99.90
23685;DHT22;12020;51.384;6.908;2024-01-30T14:10:47;12.20;99.90
23685;DHT22;12020;51.384;6.908;2024-01-30T14:13:13;12.30;99.90
23685;DHT22;12020;51.384;6.908;2024-01-30T14:15:38;12.30;99.90
23685;DHT22;12020;51.384;6.908;2024-01-30T14:18:07;12.30;99.90
23685;DHT22;12020;51.384;6.908;2024-01-30T14:20:34;12.30;99.90
23685;DHT22;12020;51.384;6.908;2024-01-30T14:23:00;12.30;99.90
23685;DHT22;12020;51.384;6.908;2024-01-30T14:25:25;12.40;99.90
23685;DHT22;12020;51.384;6.908;2024-01-30T14:27:51;12.40;99.90
23685;DHT22;12020;51.384;6.908;2024-01-30T14:30:17;12.40;99.90
23685;DHT22;12020;51.384;6.908;2024-01-30T14:32:43;12.40;99.90
23685;DHT22;12020;51.384;6.908;2024-01-30T14:35:10;12.40;99.90
23685;DHT22;12020;51.384;6.908;2024-01-30T14:37:37;12.40;99.90
23685;DHT22;12020;51.384;6.908;2024-01-30T14:40:03;12.40;99.90
23685;DHT22;12020;51.384;6.908;2024-01-30T14:42:29;12.40;99.90
23685;DHT22;12020;51.384;6.908;2024-01-30T14:44:57;12.30;99.90
23685;DHT22;12020;51.384;6.908;2024-01-30T14:47:24;12.30;99.90
23685;DHT22;12020;51.384;6.908;2024-01-30T14:49:49;12.30;99.90
23685;DHT22;12020;51.384;6.908;2024-01-30T14:52:15;12.30;99.90
23685;DHT22;12020;51.384;6.908;2024-01-30T14:54:41;12.40;99.90
23685;DHT22;12020;51.384;6.908;2024-01-30T14:57:06;12.40;99.90
23685;DHT22;12020;51.384;6.908;2024-01-30T14:59:34;12.40;99.90
23685;DHT22;12020;51.384;6.908;2024-01-30T15:02:00;12.40;99.90
23685;DHT22;12020;51.384;6.908;2024-01-30T15:04:25;12.40;99.90
23685;DHT22;12020;51.384;6.908;2024-01-30T15:06:51;12.40;99.90
23685;DHT22;12020;51.384;6.908;2024-01-30T15:09:16;12.30;99.90
23685;DHT22;12020;51.384;6.908;2024-01-30T15:11:44;12.30;99.90
23685;DHT22;12020;51.384;6.908;2024-01-30T15:14:10;12.20;99.90
23685;DHT22;12020;51.384;6.908;2024-01-30T15:16:36;12.20;99.90
23685;DHT22;12020;51.384;6.908;2024-01-30T15:19:02;12.20;99.90
23685;DHT22;12020;51.384;6.908;2024-01-30T15:21:28;12.20;99.90
23685;DHT22;12020;51.384;6.908;2024-01-30T15:23:54;12.10;99.90
23685;DHT22;12020;51.384;6.908;2024-01-30T15:26:20;12.10;99.90
23685;DHT22;12020;51.384;6.908;2024-01-30T15:28:47;12.10;99.90
23685;DHT22;12020;51.384;6.908;2024-01-30T15:31:13;12.10;99.90
23685;DHT22;12020;51.384;6.908;2024-01-30T15:33:38;12.00;99.90
23685;DHT22;12020;51.384;6.908;2024-01-30T15:36:04;12.00;99.90
23685;DHT22;12020;51.384;6.908;2024-01-30T15:38:30;12.00;99.90
23685;DHT22;12020;51.384;6.908;2024-01-30T15:40:56;11.90;99.90